createdAt,value
2018-03-11T00:01:59.929Z,79.98
2018-03-11T00:04:28.498Z,80.04
2018-03-11T00:06:57.699Z,80.05
2018-03-11T00:09:26.286Z,80.01
2018-03-11T00:11:55.067Z,79.99
2018-03-11T00:14:24.061Z,80.12
2018-03-11T00:16:52.710Z,80.09
2018-03-11T00:19:21.391Z,80.07
2018-03-11T00:21:50.225Z,80.19
2018-03-11T00:24:18.842Z,80.31
2018-03-11T00:26:47.600Z,80.35
2018-03-11T00:29:16.654Z,80.27
2018-03-11T00:31:45.121Z,80.24
2018-03-11T00:34:13.738Z,80.23
2018-03-11T00:36:43.156Z,80.22
2018-03-11T00:39:12.230Z,80.24
2018-03-11T00:41:40.847Z,80.27
2018-03-11T00:44:09.496Z,80.25
2018-03-11T00:46:38.068Z,80.34
2018-03-11T00:49:06.506Z,80.33
2018-03-11T00:51:35.149Z,80.25
2018-03-11T00:54:03.615Z,80.32
2018-03-11T00:56:32.091Z,80.28
2018-03-11T00:59:00.623Z,80.22
2018-03-11T01:01:29.688Z,80.16
2018-03-11T01:03:58.199Z,80.06
2018-03-11T01:06:27.553Z,80.11
2018-03-11T01:08:56.036Z,80.01
2018-03-11T01:11:24.465Z,79.97
2018-03-11T01:13:52.992Z,79.85
2018-03-11T01:16:22.342Z,79.72
2018-03-11T01:18:50.781Z,79.62
2018-03-11T01:21:20.140Z,79.48
2018-03-11T01:23:48.914Z,79.41
2018-03-11T01:26:17.503Z,79.34
2018-03-11T01:28:47.237Z,79.18
2018-03-11T01:31:15.705Z,79.14
2018-03-11T01:33:44.425Z,79.10
2018-03-11T01:36:13.005Z,79.10
2018-03-11T01:38:41.518Z,79.07
2018-03-11T01:41:10.041Z,79.06
2018-03-11T01:43:39.124Z,79.11
2018-03-11T01:46:07.569Z,79.16
2018-03-11T01:48:35.976Z,79.12
2018-03-11T01:51:04.578Z,79.12
2018-03-11T01:53:33.010Z,79.17
2018-03-11T01:56:01.431Z,79.39
2018-03-11T01:58:30.085Z,79.44
2018-03-11T02:00:58.528Z,79.42
2018-03-11T02:03:26.973Z,79.37
2018-03-11T02:05:56.748Z,79.37
2018-03-11T02:08:25.188Z,79.34
2018-03-11T02:10:54.339Z,79.24
2018-03-11T02:13:23.214Z,79.25
2018-03-11T02:15:51.662Z,79.23
2018-03-11T02:18:20.073Z,79.17
2018-03-11T02:20:48.594Z,79.10
2018-03-11T02:23:17.040Z,79.23
2018-03-11T02:25:45.552Z,79.37
2018-03-11T02:28:14.054Z,79.56
2018-03-11T02:30:42.723Z,79.71
2018-03-11T02:33:11.331Z,79.88
2018-03-11T02:35:39.829Z,80.06
2018-03-11T02:38:08.327Z,80.06
2018-03-11T02:40:36.760Z,79.92
2018-03-11T02:43:05.229Z,79.86
2018-03-11T02:45:33.878Z,79.75
2018-03-11T02:48:02.372Z,79.65
2018-03-11T02:50:31.410Z,79.50
2018-03-11T02:52:59.845Z,79.41
2018-03-11T02:55:28.416Z,79.39
2018-03-11T02:57:56.953Z,79.34
2018-03-11T03:00:25.410Z,79.41
2018-03-11T03:02:53.886Z,79.40
2018-03-11T03:05:22.647Z,79.55
2018-03-11T03:07:51.168Z,79.64
2018-03-11T03:10:19.629Z,79.68
2018-03-11T03:12:48.236Z,79.59
2018-03-11T03:15:17.228Z,79.61
2018-03-11T03:17:45.910Z,79.64
2018-03-11T03:20:14.394Z,79.63
2018-03-11T03:22:42.878Z,79.66
2018-03-11T03:25:11.424Z,79.88
2018-03-11T03:27:39.939Z,80.14
2018-03-11T03:30:08.424Z,80.16
2018-03-11T03:32:36.868Z,80.32
2018-03-11T03:35:05.895Z,80.36
2018-03-11T03:37:34.480Z,80.48
2018-03-11T03:40:02.961Z,80.64
2018-03-11T03:42:32.944Z,80.81
2018-03-11T03:45:01.359Z,80.98
2018-03-11T03:47:29.836Z,81.17
2018-03-11T03:49:58.422Z,81.23
2018-03-11T03:52:26.896Z,81.27
2018-03-11T03:54:55.382Z,81.35
2018-03-11T03:57:24.679Z,81.34
2018-03-11T03:59:53.091Z,81.41
2018-03-11T04:02:21.575Z,81.54
2018-03-11T04:04:50.086Z,81.57
2018-03-11T04:07:18.641Z,81.64
2018-03-11T04:09:47.186Z,81.73
2018-03-11T04:12:15.871Z,81.78
2018-03-11T04:14:44.321Z,81.85
2018-03-11T04:17:12.828Z,81.92
2018-03-11T04:19:42.330Z,81.89
2018-03-11T04:22:10.912Z,81.88
2018-03-11T04:24:39.346Z,81.94
2018-03-11T04:27:07.825Z,81.97
2018-03-11T04:29:37.225Z,81.99
2018-03-11T04:32:05.752Z,82.00
2018-03-11T04:34:35.231Z,82.01
2018-03-11T04:37:03.657Z,82.01
2018-03-11T04:39:33.048Z,82.00
2018-03-11T04:42:01.893Z,81.97
2018-03-11T04:44:30.459Z,82.03
2018-03-11T04:46:58.886Z,82.18
2018-03-11T04:49:28.220Z,82.24
2018-03-11T04:51:58.617Z,82.26
2018-03-11T04:54:27.107Z,82.13
2018-03-11T04:56:56.269Z,81.99
2018-03-11T04:59:24.876Z,81.90
2018-03-11T05:01:53.345Z,81.71
2018-03-11T05:04:22.784Z,81.56
2018-03-11T05:06:51.253Z,81.42
2018-03-11T05:09:19.790Z,81.31
2018-03-11T05:11:48.612Z,81.25
2018-03-11T05:14:17.121Z,81.21
2018-03-11T05:16:45.768Z,81.23
2018-03-11T05:19:14.255Z,81.21
2018-03-11T05:21:42.688Z,81.14
2018-03-11T05:24:11.548Z,81.09
2018-03-11T05:26:40.678Z,81.16
2018-03-11T05:29:09.197Z,81.17
2018-03-11T05:31:37.704Z,81.26
2018-03-11T05:34:06.261Z,81.20
2018-03-11T05:36:34.811Z,81.10
2018-03-11T05:39:03.427Z,81.13
2018-03-11T05:41:32.010Z,81.05
2018-03-11T05:44:00.460Z,81.08
2018-03-11T05:46:28.879Z,81.12
2018-03-11T05:48:57.443Z,81.13
2018-03-11T05:51:25.859Z,81.23
2018-03-11T05:53:54.279Z,81.33
2018-03-11T05:56:22.773Z,81.36
2018-03-11T05:58:51.193Z,81.40
2018-03-11T06:01:19.769Z,81.40
2018-03-11T06:03:48.316Z,81.45
2018-03-11T06:06:16.899Z,81.40
2018-03-11T06:08:45.700Z,81.39
2018-03-11T06:11:14.182Z,81.36
2018-03-11T06:13:42.982Z,81.42
2018-03-11T06:16:11.646Z,81.51
2018-03-11T06:18:40.374Z,81.53
2018-03-11T06:21:09.838Z,81.54
2018-03-11T06:23:38.257Z,81.43
2018-03-11T06:26:07.414Z,81.32
2018-03-11T06:28:36.142Z,81.04
2018-03-11T06:31:04.622Z,80.84
2018-03-11T06:33:34.086Z,80.75
2018-03-11T06:36:02.518Z,80.86
2018-03-11T06:38:30.934Z,80.89
2018-03-11T06:40:59.525Z,80.93
2018-03-11T06:43:27.998Z,81.02
2018-03-11T06:45:57.437Z,81.07
2018-03-11T06:48:25.920Z,81.02
2018-03-11T06:50:54.463Z,81.03
2018-03-11T06:53:23.041Z,80.98
2018-03-11T06:55:51.644Z,80.80
2018-03-11T06:58:20.162Z,80.57
2018-03-11T07:00:48.615Z,80.55
2018-03-11T07:03:17.141Z,80.68
2018-03-11T07:05:45.860Z,80.85
2018-03-11T07:08:14.332Z,80.99
2018-03-11T07:10:42.868Z,81.08
2018-03-11T07:13:11.401Z,81.17
2018-03-11T07:15:39.886Z,81.14
2018-03-11T07:18:09.087Z,80.98
2018-03-11T07:20:37.532Z,80.95
2018-03-11T07:23:06.014Z,80.82
2018-03-11T07:25:34.500Z,80.81
2018-03-11T07:28:02.983Z,80.91
2018-03-11T07:30:31.529Z,80.89
2018-03-11T07:33:00.446Z,80.76
2018-03-11T07:35:28.956Z,80.73
2018-03-11T07:37:57.525Z,80.82
2018-03-11T07:40:26.427Z,80.97
2018-03-11T07:42:54.873Z,81.15
2018-03-11T07:45:23.339Z,81.19
2018-03-11T07:47:52.271Z,81.19
2018-03-11T07:50:20.833Z,81.12
2018-03-11T07:52:49.305Z,81.07
2018-03-11T07:55:17.931Z,81.15
2018-03-11T07:57:46.456Z,81.28
2018-03-11T08:00:14.929Z,81.10
2018-03-11T08:02:47.835Z,80.83
2018-03-11T08:05:16.347Z,80.53
2018-03-11T08:07:44.859Z,80.46
2018-03-11T08:10:13.791Z,80.44
2018-03-11T08:12:42.377Z,80.52
2018-03-11T08:15:11.609Z,80.43
2018-03-11T08:17:40.384Z,80.62
2018-03-11T08:20:08.975Z,80.59
2018-03-11T08:22:37.452Z,80.45
2018-03-11T08:25:05.940Z,80.25
2018-03-11T08:27:34.461Z,80.27
2018-03-11T08:30:02.947Z,80.28
2018-03-11T08:32:39.588Z,80.28
2018-03-11T08:35:08.667Z,80.42
2018-03-11T08:37:38.191Z,80.40
2018-03-11T08:40:06.673Z,80.70
2018-03-11T08:42:35.262Z,80.65
2018-03-11T08:45:03.917Z,80.65
2018-03-11T08:47:34.088Z,80.67
2018-03-11T08:50:02.614Z,80.51
2018-03-11T08:52:31.132Z,80.46
2018-03-11T08:55:00.393Z,80.29
2018-03-11T08:57:28.884Z,80.06
2018-03-11T08:59:57.349Z,79.99
2018-03-11T09:02:26.239Z,79.86
2018-03-11T09:04:54.705Z,79.62
2018-03-11T09:07:23.231Z,79.35
2018-03-11T09:09:51.862Z,79.29
2018-03-11T09:12:22.223Z,79.04
2018-03-11T09:14:50.765Z,78.91
2018-03-11T09:17:19.584Z,78.91
2018-03-11T09:19:48.545Z,78.94
2018-03-11T09:22:17.069Z,79.08
2018-03-11T09:24:46.531Z,79.07
2018-03-11T09:27:15.159Z,79.11
2018-03-11T09:29:43.619Z,78.92
2018-03-11T09:32:12.463Z,78.84
2018-03-11T09:34:41.195Z,78.54
2018-03-11T09:37:09.769Z,78.49
2018-03-11T09:39:38.465Z,78.13
2018-03-11T09:42:07.037Z,78.06
2018-03-11T09:44:35.529Z,77.94
2018-03-11T09:47:04.458Z,77.89
2018-03-11T09:49:32.932Z,77.67
2018-03-11T09:52:01.440Z,77.20
2018-03-11T09:54:30.919Z,76.99
2018-03-11T09:56:59.552Z,76.73
2018-03-11T09:59:28.061Z,76.45
2018-03-11T10:01:57.337Z,76.17
2018-03-11T10:04:25.825Z,75.93
2018-03-11T10:06:54.505Z,75.52
2018-03-11T10:09:23.149Z,75.63
2018-03-11T10:11:51.920Z,75.52
2018-03-11T10:14:21.179Z,75.66
2018-03-11T10:16:49.815Z,75.21
2018-03-11T10:19:18.474Z,75.28
2018-03-11T10:21:47.081Z,75.08
2018-03-11T10:24:16.231Z,75.41
2018-03-11T10:26:44.837Z,75.17
2018-03-11T10:29:13.492Z,75.44
2018-03-11T10:31:43.100Z,75.33
2018-03-11T10:34:11.657Z,74.65
2018-03-11T10:36:40.271Z,74.39
2018-03-11T10:39:08.759Z,73.65
2018-03-11T10:41:37.253Z,72.87
2018-03-11T10:44:05.785Z,70.76
2018-03-11T10:46:34.448Z,69.66
2018-03-11T10:49:03.188Z,70.85
2018-03-11T10:51:31.802Z,70.55
2018-03-11T10:54:00.390Z,70.77
2018-03-11T10:56:29.100Z,70.42
2018-03-11T10:58:57.525Z,69.91
2018-03-11T11:01:31.634Z,69.16
2018-03-11T11:04:02.884Z,68.84
2018-03-11T11:06:31.641Z,68.99
2018-03-11T11:09:00.269Z,68.19
2018-03-11T11:11:28.754Z,66.21
2018-03-11T11:13:57.311Z,64.49
2018-03-11T11:16:26.556Z,61.88
2018-03-11T11:18:55.086Z,63.08
2018-03-11T11:21:23.682Z,62.39
2018-03-11T11:23:53.113Z,60.92
2018-03-11T11:26:21.588Z,60.15
2018-03-11T11:28:50.356Z,59.34
2018-03-11T11:31:19.200Z,59.09
2018-03-11T11:33:47.827Z,59.28
2018-03-11T11:36:16.352Z,59.23
2018-03-11T11:38:44.991Z,58.46
2018-03-11T11:41:13.574Z,58.22
2018-03-11T11:43:43.070Z,57.94
2018-03-11T11:46:12.277Z,56.94
2018-03-11T11:48:40.885Z,56.04
2018-03-11T11:51:09.858Z,56.56
2018-03-11T11:53:38.848Z,56.55
2018-03-11T11:56:07.596Z,54.69
2018-03-11T11:58:36.041Z,54.32
2018-03-11T12:01:04.806Z,54.00
2018-03-11T12:03:33.388Z,53.88
2018-03-11T12:06:01.967Z,53.97
2018-03-11T12:08:30.672Z,53.83
2018-03-11T12:10:59.178Z,54.52
2018-03-11T12:13:27.641Z,54.21
2018-03-11T12:15:56.999Z,54.42
2018-03-11T12:18:25.634Z,53.60
2018-03-11T12:20:54.125Z,53.77
2018-03-11T12:23:22.764Z,54.52
2018-03-11T12:25:51.219Z,53.93
2018-03-11T12:28:20.656Z,53.98
2018-03-11T12:30:49.133Z,53.84
2018-03-11T12:33:17.568Z,54.56
2018-03-11T12:35:46.100Z,55.27
2018-03-11T12:38:15.503Z,56.18
2018-03-11T12:40:44.016Z,56.68
2018-03-11T12:43:12.460Z,57.18
2018-03-11T12:45:42.350Z,58.85
2018-03-11T12:48:10.967Z,59.82
2018-03-11T12:50:40.732Z,60.24
2018-03-11T12:53:09.241Z,59.23
2018-03-11T12:55:37.736Z,59.67
2018-03-11T12:58:06.238Z,60.03
2018-03-11T13:00:34.949Z,60.62
2018-03-11T13:03:03.434Z,60.97
2018-03-11T13:05:31.887Z,61.15
2018-03-11T13:08:03.159Z,60.33
2018-03-11T13:10:31.597Z,59.29
2018-03-11T13:13:00.084Z,59.12
2018-03-11T13:15:28.605Z,57.62
2018-03-11T13:17:58.206Z,57.75
2018-03-11T13:20:38.993Z,58.50
2018-03-11T13:23:07.464Z,58.90
2018-03-11T13:25:35.924Z,59.06
2018-03-11T13:28:16.715Z,59.65
2018-03-11T13:30:45.456Z,59.82
2018-03-11T13:33:27.041Z,60.24
2018-03-11T13:35:55.517Z,60.18
2018-03-11T13:38:35.843Z,60.13
2018-03-11T13:41:04.324Z,60.06
2018-03-11T13:43:32.993Z,61.04
2018-03-11T13:46:14.147Z,61.07
2018-03-11T13:48:42.772Z,60.79
2018-03-11T13:51:11.335Z,61.06
2018-03-11T13:53:49.935Z,61.05
2018-03-11T13:56:18.441Z,61.19
2018-03-11T13:58:47.041Z,61.69
2018-03-11T14:01:15.713Z,61.75
2018-03-11T14:03:44.268Z,61.38
2018-03-11T14:06:12.963Z,61.45
2018-03-11T14:08:41.565Z,61.57
2018-03-11T14:11:10.232Z,61.68
2018-03-11T14:13:38.746Z,61.93
2018-03-11T14:16:07.702Z,62.40
2018-03-11T14:18:36.163Z,62.20
2018-03-11T14:21:04.804Z,62.60
2018-03-11T14:23:33.289Z,62.63
2018-03-11T14:26:01.899Z,62.10
2018-03-11T14:28:30.438Z,62.18
2018-03-11T14:30:58.994Z,62.40
2018-03-11T14:33:27.559Z,62.30
2018-03-11T14:35:57.155Z,62.58
2018-03-11T14:38:26.038Z,62.68
2018-03-11T14:40:54.517Z,62.79
2018-03-11T14:43:23.044Z,63.27
2018-03-11T14:45:51.895Z,63.39
2018-03-11T14:48:21.764Z,63.53
2018-03-11T14:50:50.803Z,63.71
2018-03-11T14:53:19.337Z,63.92
2018-03-11T14:55:47.997Z,63.92
2018-03-11T14:58:18.472Z,63.85
2018-03-11T15:00:47.249Z,64.04
2018-03-11T15:03:15.775Z,64.24
2018-03-11T15:05:44.307Z,64.13
2018-03-11T15:08:13.196Z,64.52
2018-03-11T15:10:41.986Z,64.69
2018-03-11T15:13:12.209Z,64.96
2018-03-11T15:15:40.794Z,64.94
2018-03-11T15:18:09.741Z,64.94
2018-03-11T15:20:38.337Z,65.08
2018-03-11T15:23:08.289Z,64.97
2018-03-11T15:25:36.911Z,65.12
2018-03-11T15:28:05.362Z,65.30
2018-03-11T15:30:34.857Z,65.14
2018-03-11T15:33:03.545Z,64.97
2018-03-11T15:35:32.065Z,65.13
2018-03-11T15:38:02.101Z,64.92
2018-03-11T15:40:30.565Z,64.74
2018-03-11T15:42:58.997Z,64.53
2018-03-11T15:45:27.884Z,64.64
2018-03-11T15:47:56.353Z,64.99
2018-03-11T15:50:24.840Z,64.89
2018-03-11T15:52:53.796Z,65.00
2018-03-11T15:55:22.339Z,64.84
2018-03-11T15:57:50.854Z,64.46
2018-03-11T16:00:20.382Z,64.50
2018-03-11T16:02:49.184Z,64.56
2018-03-11T16:05:17.852Z,64.19
2018-03-11T16:07:47.338Z,64.29
2018-03-11T16:10:15.825Z,64.64
2018-03-11T16:12:44.337Z,64.79
2018-03-11T16:15:13.899Z,64.93
2018-03-11T16:17:42.723Z,64.90
2018-03-11T16:20:12.993Z,65.09
2018-03-11T16:22:42.052Z,65.48
2018-03-11T16:25:10.833Z,65.68
2018-03-11T16:27:39.405Z,65.74
2018-03-11T16:30:08.725Z,65.71
2018-03-11T16:32:37.218Z,65.76
2018-03-11T16:35:05.773Z,65.51
2018-03-11T16:37:34.590Z,65.49
2018-03-11T16:40:03.120Z,65.85
2018-03-11T16:42:31.749Z,65.95
2018-03-11T16:45:00.733Z,65.88
2018-03-11T16:47:29.254Z,66.20
2018-03-11T16:49:58.866Z,66.40
2018-03-11T16:52:27.895Z,66.35
2018-03-11T16:54:56.605Z,66.24
2018-03-11T16:57:39.285Z,66.55
2018-03-11T17:00:08.380Z,66.42
2018-03-11T17:02:37.949Z,66.66
2018-03-11T17:05:06.712Z,66.86
2018-03-11T17:07:35.367Z,66.86
2018-03-11T17:10:03.959Z,66.86
2018-03-11T17:12:33.041Z,66.81
2018-03-11T17:15:01.718Z,66.94
2018-03-11T17:17:30.266Z,66.90
2018-03-11T17:19:58.881Z,66.82
2018-03-11T17:22:27.440Z,67.02
2018-03-11T17:24:56.097Z,67.13
2018-03-11T17:27:24.848Z,67.16
2018-03-11T17:29:53.394Z,67.08
2018-03-11T17:32:22.627Z,67.09
2018-03-11T17:34:51.610Z,67.19
2018-03-11T17:37:20.268Z,67.33
2018-03-11T17:39:51.202Z,67.36
2018-03-11T17:42:19.824Z,67.42
2018-03-11T17:44:48.419Z,67.49
2018-03-11T17:47:17.301Z,67.62
2018-03-11T17:49:48.706Z,67.66
2018-03-11T17:52:17.775Z,67.86
2018-03-11T17:54:46.494Z,67.93
2018-03-11T17:57:15.080Z,67.88
2018-03-11T17:59:44.789Z,67.99
2018-03-11T18:02:13.260Z,68.19
2018-03-11T18:04:42.152Z,68.29
2018-03-11T18:07:11.129Z,68.41
2018-03-11T18:09:39.630Z,68.51
2018-03-11T18:12:08.423Z,68.56
2018-03-11T18:14:36.987Z,68.56
2018-03-11T18:17:05.571Z,68.61
2018-03-11T18:19:34.130Z,68.81
2018-03-11T18:22:02.705Z,68.86
2018-03-11T18:24:31.218Z,68.96
2018-03-11T18:26:59.938Z,68.98
2018-03-11T18:29:28.444Z,68.94
2018-03-11T18:31:58.219Z,69.10
2018-03-11T18:34:27.793Z,69.03
2018-03-11T18:36:56.295Z,68.95
2018-03-11T18:39:25.008Z,69.10
2018-03-11T18:41:53.761Z,69.17
2018-03-11T18:44:22.372Z,69.23
2018-03-11T18:46:50.839Z,69.26
2018-03-11T18:49:19.726Z,69.33
2018-03-11T18:51:48.228Z,69.25
2018-03-11T18:54:16.903Z,69.39
2018-03-11T18:56:45.524Z,69.31
2018-03-11T18:59:14.793Z,69.39
2018-03-11T19:01:43.610Z,69.25
2018-03-11T19:04:13.355Z,69.33
2018-03-11T19:06:42.515Z,69.43
2018-03-11T19:09:11.881Z,69.53
2018-03-11T19:11:40.874Z,69.65
2018-03-11T19:14:10.088Z,69.78
2018-03-11T19:16:38.980Z,69.77
2018-03-11T19:19:08.420Z,69.78
2018-03-11T19:21:45.264Z,69.93
2018-03-11T19:24:20.285Z,69.94
2018-03-11T19:26:54.086Z,70.00
2018-03-11T19:29:23.389Z,70.16
2018-03-11T19:31:57.738Z,70.42
2018-03-11T19:34:31.816Z,70.48
2018-03-11T19:37:05.960Z,70.37
2018-03-11T19:39:34.621Z,70.75
2018-03-11T19:42:03.207Z,70.88
2018-03-11T19:44:31.651Z,70.91
2018-03-11T19:47:00.169Z,71.05
2018-03-11T19:49:43.917Z,71.17
2018-03-11T19:52:13.627Z,71.19
2018-03-11T19:54:42.297Z,71.18
2018-03-11T19:57:11.537Z,71.14
2018-03-11T19:59:40.076Z,71.25
2018-03-11T20:02:08.666Z,71.30
2018-03-11T20:04:37.239Z,71.28
2018-03-11T20:07:05.964Z,71.34
2018-03-11T20:09:34.453Z,71.36
2018-03-11T20:12:03.005Z,71.57
2018-03-11T20:14:31.622Z,71.71
2018-03-11T20:17:00.320Z,71.71
2018-03-11T20:19:28.788Z,71.91
2018-03-11T20:21:57.468Z,72.24
2018-03-11T20:24:26.035Z,72.27
2018-03-11T20:26:54.526Z,72.52
2018-03-11T20:29:23.091Z,72.69
2018-03-11T20:31:51.621Z,72.75
2018-03-11T20:34:21.573Z,72.99
2018-03-11T20:36:50.196Z,73.23
2018-03-11T20:39:18.748Z,73.49
2018-03-11T20:41:47.581Z,73.84
2018-03-11T20:44:17.354Z,74.03
2018-03-11T20:46:46.170Z,74.06
2018-03-11T20:49:14.963Z,74.34
2018-03-11T20:51:44.262Z,74.37
2018-03-11T20:54:14.779Z,74.38
2018-03-11T20:56:43.594Z,74.17
2018-03-11T20:59:12.446Z,74.22
2018-03-11T21:01:41.155Z,74.21
2018-03-11T21:04:09.830Z,74.42
2018-03-11T21:06:38.562Z,74.62
2018-03-11T21:09:07.010Z,74.75
2018-03-11T21:11:35.636Z,74.97
2018-03-11T21:14:05.291Z,75.13
2018-03-11T21:16:33.858Z,75.24
2018-03-11T21:19:02.492Z,75.31
2018-03-11T21:21:32.254Z,75.47
2018-03-11T21:24:00.735Z,75.57
2018-03-11T21:26:29.254Z,75.98
2018-03-11T21:28:58.416Z,76.35
2018-03-11T21:31:26.870Z,76.64
2018-03-11T21:33:56.137Z,76.81
2018-03-11T21:36:24.644Z,76.97
2018-03-11T21:38:53.099Z,77.01
2018-03-11T21:41:21.556Z,77.02
2018-03-11T21:43:50.976Z,77.13
2018-03-11T21:46:19.874Z,77.14
2018-03-11T21:48:48.638Z,76.98
2018-03-11T21:51:17.643Z,77.06
2018-03-11T21:53:47.290Z,77.04
2018-03-11T21:56:16.374Z,76.92
2018-03-11T21:58:45.666Z,76.82
2018-03-11T22:01:15.048Z,76.78
2018-03-11T22:03:45.192Z,76.71
2018-03-11T22:06:14.869Z,76.57
2018-03-11T22:08:43.940Z,76.30
2018-03-11T22:11:13.572Z,76.05
2018-03-11T22:13:42.130Z,75.76
2018-03-11T22:16:14.987Z,75.67
2018-03-11T22:18:44.360Z,75.55
2018-03-11T22:21:13.445Z,75.52
2018-03-11T22:23:42.979Z,75.49
2018-03-11T22:26:12.239Z,75.34
2018-03-11T22:28:42.187Z,75.28
2018-03-11T22:31:13.612Z,75.06
2018-03-11T22:33:43.744Z,74.79
2018-03-11T22:36:12.643Z,74.71
2018-03-11T22:38:42.649Z,74.34
2018-03-11T22:41:11.547Z,74.19
2018-03-11T22:43:44.079Z,74.02
2018-03-11T22:46:12.976Z,74.28
2018-03-11T22:48:42.038Z,74.45
2018-03-11T22:51:10.935Z,74.42
2018-03-11T22:53:39.467Z,74.25
2018-03-11T22:56:07.942Z,74.05
2018-03-11T22:58:36.578Z,74.11
2018-03-11T23:01:05.217Z,74.67
2018-03-11T23:03:34.307Z,75.53
2018-03-11T23:06:02.791Z,75.88
2018-03-11T23:08:31.264Z,75.91
2018-03-11T23:10:59.801Z,76.33
2018-03-11T23:13:29.054Z,76.29
2018-03-11T23:16:00.711Z,76.24
2018-03-11T23:18:29.263Z,76.48
2018-03-11T23:20:59.389Z,76.32
2018-03-11T23:23:27.985Z,76.13
2018-03-11T23:25:57.378Z,76.05
2018-03-11T23:28:25.913Z,75.98
2018-03-11T23:30:54.598Z,76.38
2018-03-11T23:33:24.125Z,76.56
2018-03-11T23:35:53.542Z,77.02
2018-03-11T23:38:22.086Z,77.32
2018-03-11T23:40:50.695Z,77.37
2018-03-11T23:43:19.849Z,77.65
2018-03-11T23:45:48.550Z,77.79
2018-03-11T23:48:17.274Z,77.87
2018-03-11T23:50:46.330Z,78.21
2018-03-11T23:53:15.404Z,78.27
2018-03-11T23:55:44.282Z,78.24
2018-03-11T23:58:14.115Z,78.26
